sensor_id;sensor_type;location;lat;lon;timestamp;P1;durP1;ratioP1;P2;durP2;ratioP2
65096;SDS011;51686;46.758;4.356;2023-07-31T00:00:01;3.08;;;1.40;;
65096;SDS011;51686;46.758;4.356;2023-07-31T00:02:49;3.20;;;1.40;;
65096;SDS011;51686;46.758;4.356;2023-07-31T00:05:35;4.22;;;1.73;;
65096;SDS011;51686;46.758;4.356;2023-07-31T00:08:22;3.20;;;1.40;;
65096;SDS011;51686;46.758;4.356;2023-07-31T00:11:09;3.80;;;1.45;;
65096;SDS011;51686;46.758;4.356;2023-07-31T00:13:57;4.40;;;1.38;;
65096;SDS011;51686;46.758;4.356;2023-07-31T00:16:44;3.95;;;1.70;;
65096;SDS011;51686;46.758;4.356;2023-07-31T00:19:31;3.13;;;1.33;;
65096;SDS011;51686;46.758;4.356;2023-07-31T00:22:18;2.75;;;1.40;;
65096;SDS011;51686;46.758;4.356;2023-07-31T00:25:05;3.72;;;1.50;;
65096;SDS011;51686;46.758;4.356;2023-07-31T00:27:53;3.15;;;1.50;;
65096;SDS011;51686;46.758;4.356;2023-07-31T00:30:40;4.60;;;1.35;;
65096;SDS011;51686;46.758;4.356;2023-07-31T00:33:26;3.92;;;1.40;;
65096;SDS011;51686;46.758;4.356;2023-07-31T00:36:13;4.03;;;1.58;;
65096;SDS011;51686;46.758;4.356;2023-07-31T00:39:00;3.25;;;1.40;;
65096;SDS011;51686;46.758;4.356;2023-07-31T00:41:47;3.80;;;1.40;;
65096;SDS011;51686;46.758;4.356;2023-07-31T00:44:34;3.78;;;1.50;;
65096;SDS011;51686;46.758;4.356;2023-07-31T00:47:21;2.50;;;1.20;;
65096;SDS011;51686;46.758;4.356;2023-07-31T00:50:08;2.78;;;1.38;;
65096;SDS011;51686;46.758;4.356;2023-07-31T00:52:55;4.32;;;1.40;;
65096;SDS011;51686;46.758;4.356;2023-07-31T00:55:42;3.15;;;1.50;;
65096;SDS011;51686;46.758;4.356;2023-07-31T00:58:30;3.80;;;1.60;;
65096;SDS011;51686;46.758;4.356;2023-07-31T01:01:17;3.67;;;1.42;;
65096;SDS011;51686;46.758;4.356;2023-07-31T01:04:04;3.65;;;1.27;;
65096;SDS011;51686;46.758;4.356;2023-07-31T01:10:34;3.50;;;1.52;;
65096;SDS011;51686;46.758;4.356;2023-07-31T01:13:24;3.38;;;1.40;;
65096;SDS011;51686;46.758;4.356;2023-07-31T01:16:11;4.07;;;1.40;;
65096;SDS011;51686;46.758;4.356;2023-07-31T01:18:58;3.08;;;1.50;;
65096;SDS011;51686;46.758;4.356;2023-07-31T01:25:13;5.07;;;1.50;;
65096;SDS011;51686;46.758;4.356;2023-07-31T01:28:09;4.32;;;1.60;;
65096;SDS011;51686;46.758;4.356;2023-07-31T01:30:58;3.38;;;1.50;;
65096;SDS011;51686;46.758;4.356;2023-07-31T01:33:45;3.00;;;1.30;;
65096;SDS011;51686;46.758;4.356;2023-07-31T01:36:32;3.38;;;1.50;;
65096;SDS011;51686;46.758;4.356;2023-07-31T01:39:20;3.50;;;1.33;;
65096;SDS011;51686;46.758;4.356;2023-07-31T01:42:07;4.50;;;1.50;;
65096;SDS011;51686;46.758;4.356;2023-07-31T01:44:54;4.82;;;1.50;;
65096;SDS011;51686;46.758;4.356;2023-07-31T01:47:41;2.95;;;1.40;;
65096;SDS011;51686;46.758;4.356;2023-07-31T01:50:28;3.78;;;1.40;;
65096;SDS011;51686;46.758;4.356;2023-07-31T01:53:15;3.58;;;1.48;;
65096;SDS011;51686;46.758;4.356;2023-07-31T01:56:01;4.15;;;1.50;;
65096;SDS011;51686;46.758;4.356;2023-07-31T01:58:48;4.60;;;1.50;;
65096;SDS011;51686;46.758;4.356;2023-07-31T02:01:35;3.53;;;1.58;;
65096;SDS011;51686;46.758;4.356;2023-07-31T02:04:22;3.28;;;1.40;;
65096;SDS011;51686;46.758;4.356;2023-07-31T02:07:09;5.18;;;1.60;;
65096;SDS011;51686;46.758;4.356;2023-07-31T02:09:56;4.18;;;1.33;;
65096;SDS011;51686;46.758;4.356;2023-07-31T02:12:43;4.05;;;1.58;;
65096;SDS011;51686;46.758;4.356;2023-07-31T02:15:30;4.35;;;1.48;;
65096;SDS011;51686;46.758;4.356;2023-07-31T02:18:17;4.15;;;1.50;;
65096;SDS011;51686;46.758;4.356;2023-07-31T02:21:04;6.03;;;1.85;;
65096;SDS011;51686;46.758;4.356;2023-07-31T02:23:51;3.95;;;1.60;;
65096;SDS011;51686;46.758;4.356;2023-07-31T02:26:37;5.35;;;1.70;;
65096;SDS011;51686;46.758;4.356;2023-07-31T02:29:25;6.45;;;1.88;;
65096;SDS011;51686;46.758;4.356;2023-07-31T02:32:12;3.38;;;1.50;;
65096;SDS011;51686;46.758;4.356;2023-07-31T02:34:59;5.43;;;1.80;;
65096;SDS011;51686;46.758;4.356;2023-07-31T02:37:46;3.45;;;1.55;;
65096;SDS011;51686;46.758;4.356;2023-07-31T02:40:33;4.78;;;1.60;;
65096;SDS011;51686;46.758;4.356;2023-07-31T02:43:20;3.53;;;1.60;;
65096;SDS011;51686;46.758;4.356;2023-07-31T02:46:07;2.97;;;1.50;;
65096;SDS011;51686;46.758;4.356;2023-07-31T02:48:54;3.50;;;1.42;;
65096;SDS011;51686;46.758;4.356;2023-07-31T02:51:41;4.50;;;1.80;;
65096;SDS011;51686;46.758;4.356;2023-07-31T02:54:27;5.38;;;1.88;;
65096;SDS011;51686;46.758;4.356;2023-07-31T02:57:14;5.22;;;1.77;;
65096;SDS011;51686;46.758;4.356;2023-07-31T03:00:03;6.25;;;2.03;;
65096;SDS011;51686;46.758;4.356;2023-07-31T03:02:52;4.15;;;1.50;;
65096;SDS011;51686;46.758;4.356;2023-07-31T03:05:39;4.43;;;1.50;;
65096;SDS011;51686;46.758;4.356;2023-07-31T03:08:26;4.50;;;1.60;;
65096;SDS011;51686;46.758;4.356;2023-07-31T03:11:13;3.83;;;1.70;;
65096;SDS011;51686;46.758;4.356;2023-07-31T03:14:00;4.47;;;1.60;;
65096;SDS011;51686;46.758;4.356;2023-07-31T03:16:48;4.20;;;1.38;;
65096;SDS011;51686;46.758;4.356;2023-07-31T03:19:35;3.53;;;1.60;;
65096;SDS011;51686;46.758;4.356;2023-07-31T03:22:22;3.15;;;1.27;;
65096;SDS011;51686;46.758;4.356;2023-07-31T03:25:09;2.90;;;1.40;;
65096;SDS011;51686;46.758;4.356;2023-07-31T03:27:56;7.13;;;1.73;;
65096;SDS011;51686;46.758;4.356;2023-07-31T03:30:43;3.30;;;1.45;;
65096;SDS011;51686;46.758;4.356;2023-07-31T03:33:31;4.72;;;1.52;;
65096;SDS011;51686;46.758;4.356;2023-07-31T03:36:18;4.20;;;1.40;;
65096;SDS011;51686;46.758;4.356;2023-07-31T03:39:05;2.80;;;1.38;;
65096;SDS011;51686;46.758;4.356;2023-07-31T03:41:52;4.70;;;1.60;;
65096;SDS011;51686;46.758;4.356;2023-07-31T03:44:39;3.85;;;1.52;;
65096;SDS011;51686;46.758;4.356;2023-07-31T03:47:26;4.60;;;1.58;;
65096;SDS011;51686;46.758;4.356;2023-07-31T03:50:13;4.25;;;1.70;;
65096;SDS011;51686;46.758;4.356;2023-07-31T03:53:00;4.72;;;1.70;;
65096;SDS011;51686;46.758;4.356;2023-07-31T03:55:47;5.60;;;1.88;;
65096;SDS011;51686;46.758;4.356;2023-07-31T03:58:34;4.13;;;1.70;;
65096;SDS011;51686;46.758;4.356;2023-07-31T04:01:22;4.07;;;1.65;;
65096;SDS011;51686;46.758;4.356;2023-07-31T04:04:09;4.00;;;1.50;;
65096;SDS011;51686;46.758;4.356;2023-07-31T04:06:56;3.60;;;1.40;;
65096;SDS011;51686;46.758;4.356;2023-07-31T04:09:43;3.63;;;1.45;;
65096;SDS011;51686;46.758;4.356;2023-07-31T04:12:29;4.00;;;1.40;;
65096;SDS011;51686;46.758;4.356;2023-07-31T04:15:16;3.63;;;1.70;;
65096;SDS011;51686;46.758;4.356;2023-07-31T04:18:04;5.47;;;1.90;;
65096;SDS011;51686;46.758;4.356;2023-07-31T04:20:51;4.70;;;1.60;;
65096;SDS011;51686;46.758;4.356;2023-07-31T04:23:38;4.38;;;1.50;;
65096;SDS011;51686;46.758;4.356;2023-07-31T04:26:25;3.47;;;1.60;;
65096;SDS011;51686;46.758;4.356;2023-07-31T04:29:12;4.72;;;1.45;;
65096;SDS011;51686;46.758;4.356;2023-07-31T04:31:58;3.80;;;1.50;;
65096;SDS011;51686;46.758;4.356;2023-07-31T04:34:45;4.13;;;1.58;;
65096;SDS011;51686;46.758;4.356;2023-07-31T04:37:32;3.80;;;1.50;;
65096;SDS011;51686;46.758;4.356;2023-07-31T04:40:19;3.95;;;1.45;;
65096;SDS011;51686;46.758;4.356;2023-07-31T04:43:06;4.32;;;1.73;;
65096;SDS011;51686;46.758;4.356;2023-07-31T04:45:53;4.60;;;1.70;;
65096;SDS011;51686;46.758;4.356;2023-07-31T04:48:40;3.28;;;1.50;;
65096;SDS011;51686;46.758;4.356;2023-07-31T04:51:27;4.85;;;1.65;;
65096;SDS011;51686;46.758;4.356;2023-07-31T04:54:14;3.13;;;1.40;;
65096;SDS011;51686;46.758;4.356;2023-07-31T04:57:03;4.38;;;1.60;;
65096;SDS011;51686;46.758;4.356;2023-07-31T04:59:51;4.65;;;1.60;;
65096;SDS011;51686;46.758;4.356;2023-07-31T05:02:38;4.43;;;1.58;;
65096;SDS011;51686;46.758;4.356;2023-07-31T05:05:25;4.60;;;1.70;;
65096;SDS011;51686;46.758;4.356;2023-07-31T05:08:12;4.43;;;1.48;;
65096;SDS011;51686;46.758;4.356;2023-07-31T05:10:59;3.97;;;1.60;;
65096;SDS011;51686;46.758;4.356;2023-07-31T05:13:45;5.18;;;1.63;;
65096;SDS011;51686;46.758;4.356;2023-07-31T05:16:33;4.68;;;1.67;;
65096;SDS011;51686;46.758;4.356;2023-07-31T05:19:19;6.93;;;1.85;;
65096;SDS011;51686;46.758;4.356;2023-07-31T05:22:06;4.32;;;1.55;;
65096;SDS011;51686;46.758;4.356;2023-07-31T05:24:53;3.90;;;1.63;;
65096;SDS011;51686;46.758;4.356;2023-07-31T05:27:40;4.90;;;1.80;;
65096;SDS011;51686;46.758;4.356;2023-07-31T05:30:29;5.63;;;1.70;;
65096;SDS011;51686;46.758;4.356;2023-07-31T05:33:16;5.07;;;1.67;;
65096;SDS011;51686;46.758;4.356;2023-07-31T05:36:03;3.90;;;1.40;;
65096;SDS011;51686;46.758;4.356;2023-07-31T05:38:50;3.35;;;1.48;;
65096;SDS011;51686;46.758;4.356;2023-07-31T05:41:37;5.45;;;1.48;;
65096;SDS011;51686;46.758;4.356;2023-07-31T05:44:24;4.10;;;1.52;;
65096;SDS011;51686;46.758;4.356;2023-07-31T05:47:11;4.43;;;1.58;;
65096;SDS011;51686;46.758;4.356;2023-07-31T05:49:58;3.80;;;1.52;;
65096;SDS011;51686;46.758;4.356;2023-07-31T05:52:45;3.75;;;1.50;;
65096;SDS011;51686;46.758;4.356;2023-07-31T05:55:32;3.80;;;1.42;;
65096;SDS011;51686;46.758;4.356;2023-07-31T05:58:18;5.25;;;1.60;;
65096;SDS011;51686;46.758;4.356;2023-07-31T06:01:05;5.47;;;1.80;;
65096;SDS011;51686;46.758;4.356;2023-07-31T06:03:52;4.90;;;1.50;;
65096;SDS011;51686;46.758;4.356;2023-07-31T06:06:39;4.07;;;1.55;;
65096;SDS011;51686;46.758;4.356;2023-07-31T06:09:27;4.10;;;1.70;;
65096;SDS011;51686;46.758;4.356;2023-07-31T06:12:13;5.57;;;1.80;;
65096;SDS011;51686;46.758;4.356;2023-07-31T06:15:01;3.83;;;1.40;;
65096;SDS011;51686;46.758;4.356;2023-07-31T06:17:49;4.50;;;1.40;;
65096;SDS011;51686;46.758;4.356;2023-07-31T06:20:36;4.90;;;1.40;;
65096;SDS011;51686;46.758;4.356;2023-07-31T06:23:23;3.33;;;1.40;;
65096;SDS011;51686;46.758;4.356;2023-07-31T06:26:09;2.67;;;1.30;;
65096;SDS011;51686;46.758;4.356;2023-07-31T06:28:56;4.95;;;1.60;;
65096;SDS011;51686;46.758;4.356;2023-07-31T06:31:43;4.75;;;1.52;;
65096;SDS011;51686;46.758;4.356;2023-07-31T06:34:30;3.50;;;1.48;;
65096;SDS011;51686;46.758;4.356;2023-07-31T06:37:17;4.43;;;1.45;;
65096;SDS011;51686;46.758;4.356;2023-07-31T06:40:04;3.45;;;1.33;;
65096;SDS011;51686;46.758;4.356;2023-07-31T06:42:53;4.53;;;1.67;;
65096;SDS011;51686;46.758;4.356;2023-07-31T06:45:40;4.00;;;1.48;;
65096;SDS011;51686;46.758;4.356;2023-07-31T06:48:27;6.20;;;1.73;;
65096;SDS011;51686;46.758;4.356;2023-07-31T06:51:14;3.42;;;1.50;;
65096;SDS011;51686;46.758;4.356;2023-07-31T06:54:01;4.13;;;1.60;;
65096;SDS011;51686;46.758;4.356;2023-07-31T06:56:48;4.00;;;1.20;;
65096;SDS011;51686;46.758;4.356;2023-07-31T06:59:35;4.05;;;1.48;;
65096;SDS011;51686;46.758;4.356;2023-07-31T07:02:22;4.35;;;1.48;;
65096;SDS011;51686;46.758;4.356;2023-07-31T07:05:09;4.03;;;1.50;;
65096;SDS011;51686;46.758;4.356;2023-07-31T07:07:56;3.97;;;1.40;;
65096;SDS011;51686;46.758;4.356;2023-07-31T07:10:43;3.97;;;1.52;;
65096;SDS011;51686;46.758;4.356;2023-07-31T07:13:29;3.53;;;1.48;;
65096;SDS011;51686;46.758;4.356;2023-07-31T07:16:16;5.70;;;1.50;;
65096;SDS011;51686;46.758;4.356;2023-07-31T07:19:03;3.08;;;1.38;;
65096;SDS011;51686;46.758;4.356;2023-07-31T07:21:51;6.03;;;1.70;;
65096;SDS011;51686;46.758;4.356;2023-07-31T07:24:37;3.80;;;1.50;;
65096;SDS011;51686;46.758;4.356;2023-07-31T07:27:24;4.38;;;1.42;;
65096;SDS011;51686;46.758;4.356;2023-07-31T07:30:11;3.22;;;1.30;;
65096;SDS011;51686;46.758;4.356;2023-07-31T07:32:58;4.50;;;1.45;;
65096;SDS011;51686;46.758;4.356;2023-07-31T07:35:45;2.65;;;1.20;;
65096;SDS011;51686;46.758;4.356;2023-07-31T07:38:32;3.25;;;1.38;;
65096;SDS011;51686;46.758;4.356;2023-07-31T07:41:19;5.10;;;1.42;;
65096;SDS011;51686;46.758;4.356;2023-07-31T07:44:07;6.22;;;1.70;;
65096;SDS011;51686;46.758;4.356;2023-07-31T07:46:54;4.03;;;1.52;;
65096;SDS011;51686;46.758;4.356;2023-07-31T07:49:41;3.47;;;1.25;;
65096;SDS011;51686;46.758;4.356;2023-07-31T07:52:31;4.70;;;1.45;;
65096;SDS011;51686;46.758;4.356;2023-07-31T07:55:18;5.50;;;1.73;;
65096;SDS011;51686;46.758;4.356;2023-07-31T07:58:05;3.55;;;1.50;;
65096;SDS011;51686;46.758;4.356;2023-07-31T08:00:52;4.50;;;1.48;;
65096;SDS011;51686;46.758;4.356;2023-07-31T08:03:39;4.90;;;1.52;;
65096;SDS011;51686;46.758;4.356;2023-07-31T08:06:26;5.32;;;1.70;;
65096;SDS011;51686;46.758;4.356;2023-07-31T08:09:13;6.38;;;1.85;;
65096;SDS011;51686;46.758;4.356;2023-07-31T08:12:00;4.18;;;1.60;;
65096;SDS011;51686;46.758;4.356;2023-07-31T08:14:49;6.53;;;2.00;;
65096;SDS011;51686;46.758;4.356;2023-07-31T08:17:36;5.32;;;1.75;;
65096;SDS011;51686;46.758;4.356;2023-07-31T08:20:23;6.47;;;1.80;;
65096;SDS011;51686;46.758;4.356;2023-07-31T08:23:10;6.95;;;1.60;;
65096;SDS011;51686;46.758;4.356;2023-07-31T08:25:57;4.38;;;1.60;;
65096;SDS011;51686;46.758;4.356;2023-07-31T08:28:44;4.07;;;1.60;;
65096;SDS011;51686;46.758;4.356;2023-07-31T08:31:31;5.75;;;1.60;;
65096;SDS011;51686;46.758;4.356;2023-07-31T08:34:18;5.45;;;1.77;;
65096;SDS011;51686;46.758;4.356;2023-07-31T08:37:05;5.55;;;1.65;;
65096;SDS011;51686;46.758;4.356;2023-07-31T08:39:52;4.65;;;1.80;;
65096;SDS011;51686;46.758;4.356;2023-07-31T08:42:43;7.27;;;2.10;;
65096;SDS011;51686;46.758;4.356;2023-07-31T08:45:33;5.25;;;1.73;;
65096;SDS011;51686;46.758;4.356;2023-07-31T08:48:21;4.50;;;1.58;;
65096;SDS011;51686;46.758;4.356;2023-07-31T08:51:09;5.57;;;1.77;;
65096;SDS011;51686;46.758;4.356;2023-07-31T08:53:56;5.40;;;1.80;;
65096;SDS011;51686;46.758;4.356;2023-07-31T08:56:44;4.68;;;1.80;;
65096;SDS011;51686;46.758;4.356;2023-07-31T08:59:31;5.65;;;1.65;;
65096;SDS011;51686;46.758;4.356;2023-07-31T09:02:18;5.15;;;1.52;;
65096;SDS011;51686;46.758;4.356;2023-07-31T09:05:06;5.70;;;1.85;;
65096;SDS011;51686;46.758;4.356;2023-07-31T09:10:41;6.47;;;1.85;;
65096;SDS011;51686;46.758;4.356;2023-07-31T09:13:29;5.10;;;1.67;;
65096;SDS011;51686;46.758;4.356;2023-07-31T09:16:16;5.18;;;1.70;;
65096;SDS011;51686;46.758;4.356;2023-07-31T09:19:03;4.78;;;1.70;;
65096;SDS011;51686;46.758;4.356;2023-07-31T09:21:51;4.38;;;1.70;;
65096;SDS011;51686;46.758;4.356;2023-07-31T09:24:38;4.97;;;1.60;;
65096;SDS011;51686;46.758;4.356;2023-07-31T09:27:25;4.47;;;1.75;;
65096;SDS011;51686;46.758;4.356;2023-07-31T09:30:12;5.78;;;1.77;;
65096;SDS011;51686;46.758;4.356;2023-07-31T09:33:00;5.45;;;1.95;;
65096;SDS011;51686;46.758;4.356;2023-07-31T09:35:55;4.60;;;1.77;;
65096;SDS011;51686;46.758;4.356;2023-07-31T09:38:45;3.78;;;1.55;;
65096;SDS011;51686;46.758;4.356;2023-07-31T09:41:32;6.07;;;1.80;;
65096;SDS011;51686;46.758;4.356;2023-07-31T09:44:39;4.65;;;1.67;;
65096;SDS011;51686;46.758;4.356;2023-07-31T09:47:29;5.95;;;1.70;;
65096;SDS011;51686;46.758;4.356;2023-07-31T09:50:17;6.72;;;1.73;;
65096;SDS011;51686;46.758;4.356;2023-07-31T09:53:05;5.38;;;1.95;;
65096;SDS011;51686;46.758;4.356;2023-07-31T09:55:52;5.40;;;1.83;;
65096;SDS011;51686;46.758;4.356;2023-07-31T09:58:39;5.90;;;1.80;;
65096;SDS011;51686;46.758;4.356;2023-07-31T10:01:26;6.18;;;1.80;;
65096;SDS011;51686;46.758;4.356;2023-07-31T10:04:13;5.80;;;1.80;;
65096;SDS011;51686;46.758;4.356;2023-07-31T10:07:00;4.13;;;1.60;;
65096;SDS011;51686;46.758;4.356;2023-07-31T10:09:49;5.82;;;1.77;;
65096;SDS011;51686;46.758;4.356;2023-07-31T10:12:38;5.47;;;1.77;;
65096;SDS011;51686;46.758;4.356;2023-07-31T10:15:25;5.57;;;1.90;;
65096;SDS011;51686;46.758;4.356;2023-07-31T10:18:13;3.77;;;1.43;;
65096;SDS011;51686;46.758;4.356;2023-07-31T10:21:00;4.53;;;1.45;;
65096;SDS011;51686;46.758;4.356;2023-07-31T10:23:48;4.95;;;1.60;;
65096;SDS011;51686;46.758;4.356;2023-07-31T10:26:36;5.45;;;1.50;;
65096;SDS011;51686;46.758;4.356;2023-07-31T10:32:11;5.45;;;1.50;;
65096;SDS011;51686;46.758;4.356;2023-07-31T10:34:58;3.92;;;1.38;;
65096;SDS011;51686;46.758;4.356;2023-07-31T10:37:45;5.72;;;1.60;;
65096;SDS011;51686;46.758;4.356;2023-07-31T10:40:32;4.20;;;1.55;;
65096;SDS011;51686;46.758;4.356;2023-07-31T10:43:25;4.85;;;1.50;;
65096;SDS011;51686;46.758;4.356;2023-07-31T10:46:16;4.88;;;1.58;;
65096;SDS011;51686;46.758;4.356;2023-07-31T10:49:03;4.80;;;1.60;;
65096;SDS011;51686;46.758;4.356;2023-07-31T10:51:50;5.40;;;1.70;;
65096;SDS011;51686;46.758;4.356;2023-07-31T10:54:37;3.45;;;1.40;;
65096;SDS011;51686;46.758;4.356;2023-07-31T10:57:25;5.13;;;1.67;;
65096;SDS011;51686;46.758;4.356;2023-07-31T11:00:19;7.07;;;1.90;;
65096;SDS011;51686;46.758;4.356;2023-07-31T11:03:12;8.23;;;2.10;;
65096;SDS011;51686;46.758;4.356;2023-07-31T11:06:03;5.50;;;1.70;;
65096;SDS011;51686;46.758;4.356;2023-07-31T11:08:50;7.00;;;1.85;;
65096;SDS011;51686;46.758;4.356;2023-07-31T11:11:37;5.13;;;2.00;;
65096;SDS011;51686;46.758;4.356;2023-07-31T11:14:24;7.13;;;2.03;;
65096;SDS011;51686;46.758;4.356;2023-07-31T11:17:11;5.60;;;1.90;;
65096;SDS011;51686;46.758;4.356;2023-07-31T11:19:58;5.65;;;2.00;;
65096;SDS011;51686;46.758;4.356;2023-07-31T11:22:45;6.13;;;1.90;;
65096;SDS011;51686;46.758;4.356;2023-07-31T11:25:33;6.57;;;1.97;;
65096;SDS011;51686;46.758;4.356;2023-07-31T11:28:20;8.20;;;2.15;;
65096;SDS011;51686;46.758;4.356;2023-07-31T11:31:08;7.47;;;2.08;;
65096;SDS011;51686;46.758;4.356;2023-07-31T11:34:05;6.75;;;1.90;;
65096;SDS011;51686;46.758;4.356;2023-07-31T11:36:55;6.13;;;1.95;;
65096;SDS011;51686;46.758;4.356;2023-07-31T11:39:42;9.30;;;2.58;;
65096;SDS011;51686;46.758;4.356;2023-07-31T11:42:29;6.90;;;2.08;;
65096;SDS011;51686;46.758;4.356;2023-07-31T11:45:16;6.75;;;2.03;;
65096;SDS011;51686;46.758;4.356;2023-07-31T11:48:03;7.22;;;1.90;;
65096;SDS011;51686;46.758;4.356;2023-07-31T11:50:50;6.38;;;2.05;;
65096;SDS011;51686;46.758;4.356;2023-07-31T11:53:40;6.32;;;1.90;;
65096;SDS011;51686;46.758;4.356;2023-07-31T11:56:29;6.45;;;2.00;;
65096;SDS011;51686;46.758;4.356;2023-07-31T11:59:16;7.65;;;2.10;;
65096;SDS011;51686;46.758;4.356;2023-07-31T12:02:03;7.50;;;2.10;;
65096;SDS011;51686;46.758;4.356;2023-07-31T12:04:50;7.68;;;2.25;;
65096;SDS011;51686;46.758;4.356;2023-07-31T12:07:48;7.47;;;1.75;;
65096;SDS011;51686;46.758;4.356;2023-07-31T12:10:37;7.28;;;2.33;;
65096;SDS011;51686;46.758;4.356;2023-07-31T12:13:24;6.25;;;1.90;;
65096;SDS011;51686;46.758;4.356;2023-07-31T12:16:15;4.82;;;1.80;;
65096;SDS011;51686;46.758;4.356;2023-07-31T12:19:02;7.10;;;2.03;;
65096;SDS011;51686;46.758;4.356;2023-07-31T12:21:49;6.40;;;2.17;;
65096;SDS011;51686;46.758;4.356;2023-07-31T12:24:36;3.55;;;1.48;;
65096;SDS011;51686;46.758;4.356;2023-07-31T12:27:32;6.13;;;1.90;;
65096;SDS011;51686;46.758;4.356;2023-07-31T12:30:27;5.38;;;1.77;;
65096;SDS011;51686;46.758;4.356;2023-07-31T12:33:18;3.90;;;1.42;;
65096;SDS011;51686;46.758;4.356;2023-07-31T12:36:12;4.07;;;1.53;;
65096;SDS011;51686;46.758;4.356;2023-07-31T12:39:01;5.03;;;1.40;;
65096;SDS011;51686;46.758;4.356;2023-07-31T12:41:48;4.47;;;1.42;;
65096;SDS011;51686;46.758;4.356;2023-07-31T12:44:35;3.58;;;1.38;;
65096;SDS011;51686;46.758;4.356;2023-07-31T12:47:22;4.80;;;1.50;;
65096;SDS011;51686;46.758;4.356;2023-07-31T12:50:09;2.60;;;1.23;;
65096;SDS011;51686;46.758;4.356;2023-07-31T12:52:57;4.22;;;1.70;;
65096;SDS011;51686;46.758;4.356;2023-07-31T12:55:44;3.92;;;1.40;;
65096;SDS011;51686;46.758;4.356;2023-07-31T12:58:31;4.97;;;1.50;;
65096;SDS011;51686;46.758;4.356;2023-07-31T13:01:18;5.30;;;1.60;;
65096;SDS011;51686;46.758;4.356;2023-07-31T13:04:05;3.20;;;1.50;;
65096;SDS011;51686;46.758;4.356;2023-07-31T13:06:51;2.90;;;1.20;;
65096;SDS011;51686;46.758;4.356;2023-07-31T13:09:38;4.57;;;1.38;;
65096;SDS011;51686;46.758;4.356;2023-07-31T13:12:25;4.00;;;1.55;;
65096;SDS011;51686;46.758;4.356;2023-07-31T13:15:12;3.53;;;1.40;;
65096;SDS011;51686;46.758;4.356;2023-07-31T13:17:59;4.65;;;1.50;;
65096;SDS011;51686;46.758;4.356;2023-07-31T13:20:46;4.93;;;1.50;;
65096;SDS011;51686;46.758;4.356;2023-07-31T13:23:33;4.30;;;1.40;;
65096;SDS011;51686;46.758;4.356;2023-07-31T13:26:20;6.00;;;1.85;;
65096;SDS011;51686;46.758;4.356;2023-07-31T13:29:07;4.68;;;1.67;;
65096;SDS011;51686;46.758;4.356;2023-07-31T13:31:58;3.80;;;1.60;;
65096;SDS011;51686;46.758;4.356;2023-07-31T13:34:45;4.40;;;1.70;;
65096;SDS011;51686;46.758;4.356;2023-07-31T13:37:32;5.35;;;2.00;;
65096;SDS011;51686;46.758;4.356;2023-07-31T13:40:19;5.07;;;1.90;;
65096;SDS011;51686;46.758;4.356;2023-07-31T13:43:06;6.22;;;2.03;;
65096;SDS011;51686;46.758;4.356;2023-07-31T13:45:56;4.85;;;1.88;;
65096;SDS011;51686;46.758;4.356;2023-07-31T13:48:43;7.43;;;2.20;;
65096;SDS011;51686;46.758;4.356;2023-07-31T13:51:30;7.00;;;2.13;;
65096;SDS011;51686;46.758;4.356;2023-07-31T13:54:17;6.80;;;2.25;;
65096;SDS011;51686;46.758;4.356;2023-07-31T13:57:05;7.20;;;2.40;;
65096;SDS011;51686;46.758;4.356;2023-07-31T13:59:52;8.73;;;2.42;;
65096;SDS011;51686;46.758;4.356;2023-07-31T14:02:39;5.60;;;2.00;;
65096;SDS011;51686;46.758;4.356;2023-07-31T14:05:26;6.35;;;2.15;;
65096;SDS011;51686;46.758;4.356;2023-07-31T14:08:12;5.80;;;1.90;;
65096;SDS011;51686;46.758;4.356;2023-07-31T14:10:59;6.82;;;2.03;;
65096;SDS011;51686;46.758;4.356;2023-07-31T14:13:46;4.65;;;1.85;;
65096;SDS011;51686;46.758;4.356;2023-07-31T14:16:33;5.70;;;1.83;;
65096;SDS011;51686;46.758;4.356;2023-07-31T14:19:20;6.55;;;2.03;;
65096;SDS011;51686;46.758;4.356;2023-07-31T14:22:07;6.45;;;2.58;;
65096;SDS011;51686;46.758;4.356;2023-07-31T14:24:57;6.38;;;2.22;;
65096;SDS011;51686;46.758;4.356;2023-07-31T14:27:44;5.78;;;2.03;;
65096;SDS011;51686;46.758;4.356;2023-07-31T14:30:31;4.10;;;1.60;;
65096;SDS011;51686;46.758;4.356;2023-07-31T14:33:18;7.13;;;1.92;;
65096;SDS011;51686;46.758;4.356;2023-07-31T14:36:05;5.32;;;1.90;;
65096;SDS011;51686;46.758;4.356;2023-07-31T14:38:51;6.18;;;2.00;;
65096;SDS011;51686;46.758;4.356;2023-07-31T14:41:38;5.00;;;1.70;;
65096;SDS011;51686;46.758;4.356;2023-07-31T14:44:25;4.82;;;1.90;;
65096;SDS011;51686;46.758;4.356;2023-07-31T14:47:12;4.82;;;1.80;;
65096;SDS011;51686;46.758;4.356;2023-07-31T14:49:59;4.30;;;1.55;;
65096;SDS011;51686;46.758;4.356;2023-07-31T14:52:47;4.80;;;1.80;;
65096;SDS011;51686;46.758;4.356;2023-07-31T14:55:34;6.60;;;2.00;;
65096;SDS011;51686;46.758;4.356;2023-07-31T14:58:21;5.88;;;1.77;;
65096;SDS011;51686;46.758;4.356;2023-07-31T15:01:08;6.55;;;2.00;;
65096;SDS011;51686;46.758;4.356;2023-07-31T15:03:55;4.63;;;1.50;;
65096;SDS011;51686;46.758;4.356;2023-07-31T15:06:42;4.85;;;1.73;;
65096;SDS011;51686;46.758;4.356;2023-07-31T15:09:29;3.78;;;1.58;;
65096;SDS011;51686;46.758;4.356;2023-07-31T15:12:16;4.85;;;1.70;;
65096;SDS011;51686;46.758;4.356;2023-07-31T15:15:04;7.00;;;2.00;;
65096;SDS011;51686;46.758;4.356;2023-07-31T15:17:51;5.25;;;1.88;;
65096;SDS011;51686;46.758;4.356;2023-07-31T15:20:38;4.80;;;1.80;;
65096;SDS011;51686;46.758;4.356;2023-07-31T15:23:25;5.53;;;1.90;;
65096;SDS011;51686;46.758;4.356;2023-07-31T15:26:13;5.87;;;1.97;;
65096;SDS011;51686;46.758;4.356;2023-07-31T15:29:02;5.43;;;1.70;;
65096;SDS011;51686;46.758;4.356;2023-07-31T15:31:58;5.75;;;2.00;;
65096;SDS011;51686;46.758;4.356;2023-07-31T15:34:45;5.68;;;1.95;;
65096;SDS011;51686;46.758;4.356;2023-07-31T15:37:32;5.82;;;1.88;;
65096;SDS011;51686;46.758;4.356;2023-07-31T15:40:19;5.40;;;2.00;;
65096;SDS011;51686;46.758;4.356;2023-07-31T15:43:06;5.88;;;1.90;;
65096;SDS011;51686;46.758;4.356;2023-07-31T15:45:53;3.67;;;1.50;;
65096;SDS011;51686;46.758;4.356;2023-07-31T15:48:39;5.45;;;1.95;;
65096;SDS011;51686;46.758;4.356;2023-07-31T15:51:26;5.72;;;1.73;;
65096;SDS011;51686;46.758;4.356;2023-07-31T15:54:13;5.20;;;1.80;;
65096;SDS011;51686;46.758;4.356;2023-07-31T15:57:00;6.10;;;1.98;;
65096;SDS011;51686;46.758;4.356;2023-07-31T15:59:47;5.95;;;1.90;;
65096;SDS011;51686;46.758;4.356;2023-07-31T16:02:34;5.25;;;1.90;;
65096;SDS011;51686;46.758;4.356;2023-07-31T16:05:21;5.68;;;1.98;;
65096;SDS011;51686;46.758;4.356;2023-07-31T16:08:08;5.82;;;2.03;;
65096;SDS011;51686;46.758;4.356;2023-07-31T16:10:55;6.13;;;2.20;;
65096;SDS011;51686;46.758;4.356;2023-07-31T16:13:42;4.13;;;1.60;;
65096;SDS011;51686;46.758;4.356;2023-07-31T16:16:29;6.43;;;1.80;;
65096;SDS011;51686;46.758;4.356;2023-07-31T16:19:16;4.72;;;1.85;;
65096;SDS011;51686;46.758;4.356;2023-07-31T16:22:03;5.43;;;2.00;;
65096;SDS011;51686;46.758;4.356;2023-07-31T16:24:50;5.25;;;1.70;;
65096;SDS011;51686;46.758;4.356;2023-07-31T16:27:37;4.47;;;1.70;;
65096;SDS011;51686;46.758;4.356;2023-07-31T16:30:24;5.75;;;1.92;;
65096;SDS011;51686;46.758;4.356;2023-07-31T16:33:11;5.50;;;1.88;;
65096;SDS011;51686;46.758;4.356;2023-07-31T16:35:58;4.45;;;1.60;;
65096;SDS011;51686;46.758;4.356;2023-07-31T16:38:45;5.43;;;1.90;;
65096;SDS011;51686;46.758;4.356;2023-07-31T16:41:32;5.13;;;1.80;;
65096;SDS011;51686;46.758;4.356;2023-07-31T16:44:19;3.67;;;1.60;;
65096;SDS011;51686;46.758;4.356;2023-07-31T16:47:07;4.50;;;1.73;;
65096;SDS011;51686;46.758;4.356;2023-07-31T16:49:54;5.18;;;1.70;;
65096;SDS011;51686;46.758;4.356;2023-07-31T16:52:40;6.32;;;2.08;;
65096;SDS011;51686;46.758;4.356;2023-07-31T16:55:27;4.28;;;1.70;;
65096;SDS011;51686;46.758;4.356;2023-07-31T16:58:15;5.45;;;1.70;;
65096;SDS011;51686;46.758;4.356;2023-07-31T17:01:03;5.05;;;1.73;;